sensor_id;sensor_type;location;lat;lon;timestamp;P1;durP1;ratioP1;P2;durP2;ratioP2
18834;SDS011;9546;59.262;18.036;2022-07-23T00:00:53;14.48;;;9.00;;
18834;SDS011;9546;59.262;18.036;2022-07-23T00:03:21;15.88;;;8.27;;
18834;SDS011;9546;59.262;18.036;2022-07-23T00:05:48;16.63;;;9.10;;
18834;SDS011;9546;59.262;18.036;2022-07-23T00:08:15;17.85;;;8.77;;
18834;SDS011;9546;59.262;18.036;2022-07-23T00:10:42;17.17;;;8.40;;
18834;SDS011;9546;59.262;18.036;2022-07-23T00:13:09;15.57;;;9.02;;
18834;SDS011;9546;59.262;18.036;2022-07-23T00:15:36;14.95;;;9.43;;
18834;SDS011;9546;59.262;18.036;2022-07-23T00:18:02;16.15;;;8.93;;
18834;SDS011;9546;59.262;18.036;2022-07-23T00:20:31;21.25;;;8.82;;
18834;SDS011;9546;59.262;18.036;2022-07-23T00:22:57;21.85;;;9.73;;
18834;SDS011;9546;59.262;18.036;2022-07-23T00:25:24;20.20;;;8.95;;
18834;SDS011;9546;59.262;18.036;2022-07-23T00:27:52;15.52;;;8.57;;
18834;SDS011;9546;59.262;18.036;2022-07-23T00:30:19;14.07;;;8.75;;
18834;SDS011;9546;59.262;18.036;2022-07-23T00:32:46;15.88;;;8.57;;
18834;SDS011;9546;59.262;18.036;2022-07-23T00:35:14;16.33;;;8.98;;
18834;SDS011;9546;59.262;18.036;2022-07-23T00:37:42;19.50;;;9.13;;
18834;SDS011;9546;59.262;18.036;2022-07-23T00:40:09;15.07;;;8.52;;
18834;SDS011;9546;59.262;18.036;2022-07-23T00:42:37;18.08;;;7.80;;
18834;SDS011;9546;59.262;18.036;2022-07-23T00:45:05;17.85;;;7.43;;
18834;SDS011;9546;59.262;18.036;2022-07-23T00:47:32;16.63;;;6.95;;
18834;SDS011;9546;59.262;18.036;2022-07-23T00:50:00;19.38;;;6.70;;
18834;SDS011;9546;59.262;18.036;2022-07-23T01:11:53;29.58;;;9.05;;
18834;SDS011;9546;59.262;18.036;2022-07-23T01:14:21;37.88;;;9.80;;
18834;SDS011;9546;59.262;18.036;2022-07-23T01:16:48;43.78;;;10.73;;
18834;SDS011;9546;59.262;18.036;2022-07-23T01:19:16;40.42;;;11.15;;
18834;SDS011;9546;59.262;18.036;2022-07-23T01:21:44;35.90;;;10.65;;
18834;SDS011;9546;59.262;18.036;2022-07-23T01:24:14;42.80;;;10.57;;
18834;SDS011;9546;59.262;18.036;2022-07-23T01:26:41;36.47;;;11.38;;
18834;SDS011;9546;59.262;18.036;2022-07-23T01:29:10;37.10;;;11.52;;
18834;SDS011;9546;59.262;18.036;2022-07-23T01:31:37;45.35;;;12.40;;
18834;SDS011;9546;59.262;18.036;2022-07-23T01:34:04;46.70;;;12.00;;
18834;SDS011;9546;59.262;18.036;2022-07-23T01:36:32;40.55;;;11.70;;
18834;SDS011;9546;59.262;18.036;2022-07-23T01:38:59;38.03;;;12.35;;
18834;SDS011;9546;59.262;18.036;2022-07-23T01:41:27;34.22;;;10.90;;
18834;SDS011;9546;59.262;18.036;2022-07-23T01:43:54;41.13;;;12.48;;
18834;SDS011;9546;59.262;18.036;2022-07-23T01:46:21;40.97;;;12.93;;
18834;SDS011;9546;59.262;18.036;2022-07-23T01:48:48;37.00;;;11.50;;
18834;SDS011;9546;59.262;18.036;2022-07-23T01:51:15;36.47;;;12.55;;
18834;SDS011;9546;59.262;18.036;2022-07-23T01:53:42;34.17;;;12.13;;
18834;SDS011;9546;59.262;18.036;2022-07-23T01:56:08;36.00;;;12.82;;
18834;SDS011;9546;59.262;18.036;2022-07-23T01:58:37;31.20;;;11.70;;
18834;SDS011;9546;59.262;18.036;2022-07-23T02:01:03;33.63;;;10.60;;
18834;SDS011;9546;59.262;18.036;2022-07-23T02:03:30;30.95;;;11.45;;
18834;SDS011;9546;59.262;18.036;2022-07-23T02:05:57;33.40;;;11.70;;
18834;SDS011;9546;59.262;18.036;2022-07-23T02:08:24;29.75;;;10.88;;
18834;SDS011;9546;59.262;18.036;2022-07-23T02:10:51;26.67;;;9.38;;
18834;SDS011;9546;59.262;18.036;2022-07-23T02:13:18;27.83;;;10.40;;
18834;SDS011;9546;59.262;18.036;2022-07-23T02:15:46;25.33;;;9.82;;
18834;SDS011;9546;59.262;18.036;2022-07-23T02:18:13;22.15;;;9.82;;
18834;SDS011;9546;59.262;18.036;2022-07-23T02:20:40;23.15;;;10.02;;
18834;SDS011;9546;59.262;18.036;2022-07-23T02:23:07;23.83;;;9.60;;
18834;SDS011;9546;59.262;18.036;2022-07-23T02:25:34;19.83;;;9.52;;
18834;SDS011;9546;59.262;18.036;2022-07-23T02:28:01;21.67;;;9.23;;
18834;SDS011;9546;59.262;18.036;2022-07-23T02:30:29;20.58;;;9.07;;
18834;SDS011;9546;59.262;18.036;2022-07-23T02:32:57;19.63;;;9.15;;
18834;SDS011;9546;59.262;18.036;2022-07-23T02:35:24;21.55;;;9.40;;
18834;SDS011;9546;59.262;18.036;2022-07-23T02:37:51;21.20;;;8.90;;
18834;SDS011;9546;59.262;18.036;2022-07-23T02:40:17;25.42;;;9.30;;
18834;SDS011;9546;59.262;18.036;2022-07-23T02:42:45;20.63;;;9.23;;
18834;SDS011;9546;59.262;18.036;2022-07-23T02:45:12;19.83;;;8.20;;
18834;SDS011;9546;59.262;18.036;2022-07-23T02:47:39;19.65;;;8.23;;
18834;SDS011;9546;59.262;18.036;2022-07-23T02:50:08;22.45;;;7.70;;
18834;SDS011;9546;59.262;18.036;2022-07-23T03:12:20;18.35;;;5.97;;
18834;SDS011;9546;59.262;18.036;2022-07-23T03:14:46;16.80;;;6.25;;
18834;SDS011;9546;59.262;18.036;2022-07-23T03:17:13;13.23;;;5.60;;
18834;SDS011;9546;59.262;18.036;2022-07-23T03:19:41;13.43;;;5.40;;
18834;SDS011;9546;59.262;18.036;2022-07-23T03:22:07;14.40;;;6.03;;
18834;SDS011;9546;59.262;18.036;2022-07-23T03:24:34;11.57;;;4.57;;
18834;SDS011;9546;59.262;18.036;2022-07-23T03:27:23;9.57;;;4.85;;
18834;SDS011;9546;59.262;18.036;2022-07-23T03:29:51;10.02;;;4.20;;
18834;SDS011;9546;59.262;18.036;2022-07-23T03:32:18;9.80;;;4.60;;
18834;SDS011;9546;59.262;18.036;2022-07-23T03:34:45;7.15;;;3.63;;
18834;SDS011;9546;59.262;18.036;2022-07-23T03:37:15;9.60;;;3.83;;
18834;SDS011;9546;59.262;18.036;2022-07-23T03:39:43;10.07;;;3.60;;
18834;SDS011;9546;59.262;18.036;2022-07-23T03:42:09;7.22;;;3.83;;
18834;SDS011;9546;59.262;18.036;2022-07-23T03:44:38;7.18;;;3.22;;
18834;SDS011;9546;59.262;18.036;2022-07-23T03:47:05;5.82;;;3.78;;
18834;SDS011;9546;59.262;18.036;2022-07-23T03:49:32;6.05;;;3.13;;
18834;SDS011;9546;59.262;18.036;2022-07-23T03:52:00;6.03;;;3.03;;
18834;SDS011;9546;59.262;18.036;2022-07-23T03:54:27;6.95;;;2.80;;
18834;SDS011;9546;59.262;18.036;2022-07-23T03:56:54;5.38;;;2.35;;
18834;SDS011;9546;59.262;18.036;2022-07-23T03:59:21;5.60;;;2.55;;
18834;SDS011;9546;59.262;18.036;2022-07-23T04:01:49;6.78;;;2.30;;
18834;SDS011;9546;59.262;18.036;2022-07-23T04:04:16;4.00;;;2.20;;
18834;SDS011;9546;59.262;18.036;2022-07-23T04:06:43;2.97;;;1.88;;
18834;SDS011;9546;59.262;18.036;2022-07-23T04:09:09;4.47;;;2.20;;
18834;SDS011;9546;59.262;18.036;2022-07-23T04:11:36;2.55;;;1.73;;
18834;SDS011;9546;59.262;18.036;2022-07-23T04:14:03;3.80;;;1.63;;
18834;SDS011;9546;59.262;18.036;2022-07-23T04:16:30;4.47;;;2.20;;
18834;SDS011;9546;59.262;18.036;2022-07-23T04:18:58;6.55;;;1.80;;
18834;SDS011;9546;59.262;18.036;2022-07-23T04:21:25;1.77;;;1.48;;
18834;SDS011;9546;59.262;18.036;2022-07-23T04:23:52;3.53;;;1.73;;
18834;SDS011;9546;59.262;18.036;2022-07-23T04:26:19;1.77;;;1.35;;
18834;SDS011;9546;59.262;18.036;2022-07-23T04:28:46;2.13;;;1.50;;
18834;SDS011;9546;59.262;18.036;2022-07-23T04:31:13;2.72;;;1.50;;
18834;SDS011;9546;59.262;18.036;2022-07-23T04:33:40;2.15;;;1.55;;
18834;SDS011;9546;59.262;18.036;2022-07-23T04:36:08;3.80;;;1.30;;
18834;SDS011;9546;59.262;18.036;2022-07-23T04:38:35;2.35;;;1.38;;
18834;SDS011;9546;59.262;18.036;2022-07-23T04:41:02;3.13;;;1.20;;
18834;SDS011;9546;59.262;18.036;2022-07-23T04:43:28;2.92;;;1.42;;
18834;SDS011;9546;59.262;18.036;2022-07-23T04:45:55;3.40;;;1.88;;
18834;SDS011;9546;59.262;18.036;2022-07-23T04:48:22;3.38;;;1.40;;
18834;SDS011;9546;59.262;18.036;2022-07-23T04:50:49;3.28;;;1.38;;
18834;SDS011;9546;59.262;18.036;2022-07-23T05:12:21;2.67;;;1.92;;
18834;SDS011;9546;59.262;18.036;2022-07-23T05:14:47;3.05;;;1.77;;
18834;SDS011;9546;59.262;18.036;2022-07-23T05:17:14;2.90;;;1.50;;
18834;SDS011;9546;59.262;18.036;2022-07-23T05:19:40;3.10;;;1.45;;
18834;SDS011;9546;59.262;18.036;2022-07-23T05:22:07;2.25;;;1.75;;
18834;SDS011;9546;59.262;18.036;2022-07-23T05:24:33;3.28;;;1.90;;
18834;SDS011;9546;59.262;18.036;2022-07-23T05:27:00;2.47;;;1.48;;
18834;SDS011;9546;59.262;18.036;2022-07-23T05:29:28;1.35;;;1.08;;
18834;SDS011;9546;59.262;18.036;2022-07-23T05:31:54;1.80;;;1.33;;
18834;SDS011;9546;59.262;18.036;2022-07-23T05:34:21;2.03;;;1.33;;
18834;SDS011;9546;59.262;18.036;2022-07-23T05:36:47;2.63;;;1.77;;
18834;SDS011;9546;59.262;18.036;2022-07-23T05:39:14;1.70;;;1.25;;
18834;SDS011;9546;59.262;18.036;2022-07-23T05:41:41;2.10;;;1.38;;
18834;SDS011;9546;59.262;18.036;2022-07-23T05:44:07;3.35;;;1.80;;
18834;SDS011;9546;59.262;18.036;2022-07-23T05:46:35;3.00;;;1.73;;
18834;SDS011;9546;59.262;18.036;2022-07-23T05:49:02;3.30;;;1.75;;
18834;SDS011;9546;59.262;18.036;2022-07-23T05:51:28;2.90;;;1.90;;
18834;SDS011;9546;59.262;18.036;2022-07-23T05:53:55;2.83;;;1.65;;
18834;SDS011;9546;59.262;18.036;2022-07-23T05:56:21;2.63;;;1.80;;
18834;SDS011;9546;59.262;18.036;2022-07-23T05:58:48;4.55;;;1.73;;
18834;SDS011;9546;59.262;18.036;2022-07-23T06:01:14;2.88;;;1.67;;
18834;SDS011;9546;59.262;18.036;2022-07-23T06:03:42;3.40;;;1.48;;
18834;SDS011;9546;59.262;18.036;2022-07-23T06:06:09;1.80;;;1.58;;
18834;SDS011;9546;59.262;18.036;2022-07-23T06:08:35;3.20;;;1.50;;
18834;SDS011;9546;59.262;18.036;2022-07-23T06:11:02;5.05;;;1.70;;
18834;SDS011;9546;59.262;18.036;2022-07-23T06:13:28;1.90;;;1.67;;
18834;SDS011;9546;59.262;18.036;2022-07-23T06:15:55;2.45;;;1.60;;
18834;SDS011;9546;59.262;18.036;2022-07-23T06:18:21;4.18;;;1.70;;
18834;SDS011;9546;59.262;18.036;2022-07-23T06:20:49;1.90;;;1.52;;
18834;SDS011;9546;59.262;18.036;2022-07-23T06:23:16;3.72;;;1.88;;
18834;SDS011;9546;59.262;18.036;2022-07-23T06:25:42;3.28;;;1.65;;
18834;SDS011;9546;59.262;18.036;2022-07-23T06:28:09;3.25;;;1.92;;
18834;SDS011;9546;59.262;18.036;2022-07-23T06:30:35;3.17;;;1.40;;
18834;SDS011;9546;59.262;18.036;2022-07-23T06:33:02;2.22;;;1.73;;
18834;SDS011;9546;59.262;18.036;2022-07-23T06:35:28;1.60;;;1.13;;
18834;SDS011;9546;59.262;18.036;2022-07-23T06:37:56;2.85;;;1.63;;
18834;SDS011;9546;59.262;18.036;2022-07-23T06:40:23;1.95;;;1.20;;
18834;SDS011;9546;59.262;18.036;2022-07-23T06:42:49;1.98;;;1.33;;
18834;SDS011;9546;59.262;18.036;2022-07-23T06:45:16;1.30;;;1.02;;
18834;SDS011;9546;59.262;18.036;2022-07-23T06:47:42;1.50;;;1.20;;
18834;SDS011;9546;59.262;18.036;2022-07-23T06:50:09;3.40;;;1.35;;
18834;SDS011;9546;59.262;18.036;2022-07-23T07:12:14;1.50;;;0.98;;
18834;SDS011;9546;59.262;18.036;2022-07-23T07:14:41;1.65;;;1.20;;
18834;SDS011;9546;59.262;18.036;2022-07-23T07:17:08;3.13;;;1.08;;
18834;SDS011;9546;59.262;18.036;2022-07-23T07:19:35;1.63;;;1.00;;
18834;SDS011;9546;59.262;18.036;2022-07-23T07:22:02;1.15;;;0.88;;
18834;SDS011;9546;59.262;18.036;2022-07-23T07:24:29;1.75;;;0.90;;
18834;SDS011;9546;59.262;18.036;2022-07-23T07:26:56;2.25;;;0.88;;
18834;SDS011;9546;59.262;18.036;2022-07-23T07:29:24;2.75;;;1.08;;
18834;SDS011;9546;59.262;18.036;2022-07-23T07:31:52;1.90;;;0.70;;
18834;SDS011;9546;59.262;18.036;2022-07-23T07:34:19;1.00;;;0.77;;
18834;SDS011;9546;59.262;18.036;2022-07-23T07:36:45;0.68;;;0.65;;
18834;SDS011;9546;59.262;18.036;2022-07-23T07:39:12;1.35;;;0.70;;
18834;SDS011;9546;59.262;18.036;2022-07-23T07:41:39;0.80;;;0.80;;
18834;SDS011;9546;59.262;18.036;2022-07-23T07:44:06;1.77;;;0.98;;
18834;SDS011;9546;59.262;18.036;2022-07-23T07:46:34;1.10;;;0.80;;
18834;SDS011;9546;59.262;18.036;2022-07-23T07:49:01;1.05;;;0.60;;
18834;SDS011;9546;59.262;18.036;2022-07-23T07:51:28;0.98;;;0.77;;
18834;SDS011;9546;59.262;18.036;2022-07-23T07:53:55;2.20;;;1.00;;
18834;SDS011;9546;59.262;18.036;2022-07-23T07:56:22;0.98;;;0.70;;
18834;SDS011;9546;59.262;18.036;2022-07-23T07:58:49;1.58;;;0.80;;
18834;SDS011;9546;59.262;18.036;2022-07-23T08:01:15;0.80;;;0.70;;
18834;SDS011;9546;59.262;18.036;2022-07-23T08:03:45;1.00;;;0.70;;
18834;SDS011;9546;59.262;18.036;2022-07-23T08:06:12;0.88;;;0.82;;
18834;SDS011;9546;59.262;18.036;2022-07-23T08:08:39;0.80;;;0.70;;
18834;SDS011;9546;59.262;18.036;2022-07-23T08:11:06;1.58;;;0.75;;
18834;SDS011;9546;59.262;18.036;2022-07-23T08:13:33;0.98;;;0.85;;
18834;SDS011;9546;59.262;18.036;2022-07-23T08:16:00;0.75;;;0.60;;
18834;SDS011;9546;59.262;18.036;2022-07-23T08:18:29;1.88;;;0.65;;
18834;SDS011;9546;59.262;18.036;2022-07-23T08:20:57;1.02;;;0.70;;
18834;SDS011;9546;59.262;18.036;2022-07-23T08:23:24;1.00;;;0.90;;
18834;SDS011;9546;59.262;18.036;2022-07-23T08:25:52;0.70;;;0.70;;
18834;SDS011;9546;59.262;18.036;2022-07-23T08:28:21;1.27;;;0.50;;
18834;SDS011;9546;59.262;18.036;2022-07-23T08:30:48;0.68;;;0.68;;
18834;SDS011;9546;59.262;18.036;2022-07-23T08:33:16;0.68;;;0.60;;
18834;SDS011;9546;59.262;18.036;2022-07-23T08:35:44;1.17;;;0.85;;
18834;SDS011;9546;59.262;18.036;2022-07-23T08:38:13;0.90;;;0.70;;
18834;SDS011;9546;59.262;18.036;2022-07-23T08:40:41;1.05;;;0.82;;
18834;SDS011;9546;59.262;18.036;2022-07-23T08:43:10;0.60;;;0.60;;
18834;SDS011;9546;59.262;18.036;2022-07-23T08:45:38;1.23;;;0.80;;
18834;SDS011;9546;59.262;18.036;2022-07-23T08:48:07;1.27;;;0.77;;
18834;SDS011;9546;59.262;18.036;2022-07-23T08:50:35;0.82;;;0.68;;
18834;SDS011;9546;59.262;18.036;2022-07-23T09:12:53;2.42;;;0.82;;
18834;SDS011;9546;59.262;18.036;2022-07-23T09:15:20;1.35;;;0.88;;
18834;SDS011;9546;59.262;18.036;2022-07-23T09:17:47;0.65;;;0.60;;
18834;SDS011;9546;59.262;18.036;2022-07-23T09:20:15;0.65;;;0.55;;
18834;SDS011;9546;59.262;18.036;2022-07-23T09:22:44;1.05;;;0.60;;
18834;SDS011;9546;59.262;18.036;2022-07-23T09:25:13;1.50;;;0.82;;
18834;SDS011;9546;59.262;18.036;2022-07-23T09:27:45;0.82;;;0.63;;
18834;SDS011;9546;59.262;18.036;2022-07-23T09:30:15;0.88;;;0.50;;
18834;SDS011;9546;59.262;18.036;2022-07-23T09:32:42;1.30;;;0.80;;
18834;SDS011;9546;59.262;18.036;2022-07-23T09:35:09;0.60;;;0.60;;
18834;SDS011;9546;59.262;18.036;2022-07-23T09:37:36;1.15;;;0.70;;
18834;SDS011;9546;59.262;18.036;2022-07-23T09:40:04;1.48;;;0.65;;
18834;SDS011;9546;59.262;18.036;2022-07-23T09:42:32;1.17;;;0.70;;
18834;SDS011;9546;59.262;18.036;2022-07-23T09:45:00;0.77;;;0.68;;
18834;SDS011;9546;59.262;18.036;2022-07-23T09:47:29;0.50;;;0.50;;
18834;SDS011;9546;59.262;18.036;2022-07-23T09:49:58;0.75;;;0.60;;
18834;SDS011;9546;59.262;18.036;2022-07-23T09:52:27;1.58;;;0.68;;
18834;SDS011;9546;59.262;18.036;2022-07-23T09:54:58;0.65;;;0.60;;
18834;SDS011;9546;59.262;18.036;2022-07-23T09:57:26;2.00;;;0.50;;
18834;SDS011;9546;59.262;18.036;2022-07-23T09:59:54;1.02;;;0.60;;
18834;SDS011;9546;59.262;18.036;2022-07-23T10:02:23;3.47;;;0.60;;
18834;SDS011;9546;59.262;18.036;2022-07-23T10:04:53;0.70;;;0.50;;
18834;SDS011;9546;59.262;18.036;2022-07-23T10:07:21;0.50;;;0.50;;
18834;SDS011;9546;59.262;18.036;2022-07-23T10:09:48;0.75;;;0.50;;
18834;SDS011;9546;59.262;18.036;2022-07-23T10:12:18;0.50;;;0.50;;
18834;SDS011;9546;59.262;18.036;2022-07-23T10:14:59;2.05;;;0.50;;
18834;SDS011;9546;59.262;18.036;2022-07-23T10:17:27;2.10;;;0.70;;
18834;SDS011;9546;59.262;18.036;2022-07-23T10:19:56;0.50;;;0.50;;
18834;SDS011;9546;59.262;18.036;2022-07-23T10:22:24;0.75;;;0.50;;
18834;SDS011;9546;59.262;18.036;2022-07-23T10:24:57;0.60;;;0.57;;
18834;SDS011;9546;59.262;18.036;2022-07-23T10:30:27;2.05;;;0.88;;
18834;SDS011;9546;59.262;18.036;2022-07-23T10:33:03;0.60;;;0.52;;
18834;SDS011;9546;59.262;18.036;2022-07-23T10:35:44;0.82;;;0.52;;
18834;SDS011;9546;59.262;18.036;2022-07-23T10:38:18;0.93;;;0.60;;
18834;SDS011;9546;59.262;18.036;2022-07-23T10:40:54;0.68;;;0.68;;
18834;SDS011;9546;59.262;18.036;2022-07-23T10:43:23;3.13;;;0.98;;
18834;SDS011;9546;59.262;18.036;2022-07-23T10:45:51;1.05;;;0.70;;
18834;SDS011;9546;59.262;18.036;2022-07-23T10:48:19;0.40;;;0.40;;
18834;SDS011;9546;59.262;18.036;2022-07-23T11:15:04;2.00;;;0.70;;
18834;SDS011;9546;59.262;18.036;2022-07-23T11:17:34;0.60;;;0.60;;
18834;SDS011;9546;59.262;18.036;2022-07-23T11:20:19;2.15;;;0.88;;
18834;SDS011;9546;59.262;18.036;2022-07-23T11:22:48;1.35;;;0.60;;
18834;SDS011;9546;59.262;18.036;2022-07-23T11:25:30;1.42;;;0.63;;
18834;SDS011;9546;59.262;18.036;2022-07-23T11:28:14;2.85;;;0.90;;
18834;SDS011;9546;59.262;18.036;2022-07-23T11:30:43;2.75;;;0.90;;
18834;SDS011;9546;59.262;18.036;2022-07-23T11:33:18;1.48;;;0.73;;
18834;SDS011;9546;59.262;18.036;2022-07-23T11:35:47;2.45;;;0.80;;
18834;SDS011;9546;59.262;18.036;2022-07-23T11:38:17;0.80;;;0.70;;
18834;SDS011;9546;59.262;18.036;2022-07-23T11:40:45;1.73;;;0.70;;
18834;SDS011;9546;59.262;18.036;2022-07-23T11:43:15;1.30;;;0.80;;
18834;SDS011;9546;59.262;18.036;2022-07-23T11:45:45;1.25;;;0.73;;
18834;SDS011;9546;59.262;18.036;2022-07-23T11:48:16;3.92;;;0.98;;
18834;SDS011;9546;59.262;18.036;2022-07-23T11:50:44;2.35;;;0.80;;
18834;SDS011;9546;59.262;18.036;2022-07-23T11:53:20;1.23;;;0.93;;
18834;SDS011;9546;59.262;18.036;2022-07-23T11:55:48;2.97;;;1.00;;
18834;SDS011;9546;59.262;18.036;2022-07-23T11:58:16;1.52;;;0.80;;
18834;SDS011;9546;59.262;18.036;2022-07-23T12:00:43;1.38;;;0.73;;
18834;SDS011;9546;59.262;18.036;2022-07-23T12:03:10;2.30;;;0.90;;
18834;SDS011;9546;59.262;18.036;2022-07-23T12:05:38;2.22;;;1.20;;
18834;SDS011;9546;59.262;18.036;2022-07-23T12:08:06;1.95;;;1.10;;
18834;SDS011;9546;59.262;18.036;2022-07-23T12:10:35;1.10;;;0.90;;
18834;SDS011;9546;59.262;18.036;2022-07-23T12:13:03;2.42;;;0.80;;
18834;SDS011;9546;59.262;18.036;2022-07-23T12:15:33;1.52;;;0.90;;
18834;SDS011;9546;59.262;18.036;2022-07-23T12:18:03;2.50;;;0.75;;
18834;SDS011;9546;59.262;18.036;2022-07-23T12:20:32;1.58;;;0.90;;
18834;SDS011;9546;59.262;18.036;2022-07-23T12:23:00;0.70;;;0.60;;
18834;SDS011;9546;59.262;18.036;2022-07-23T12:25:31;0.80;;;0.77;;
18834;SDS011;9546;59.262;18.036;2022-07-23T12:28:01;1.38;;;0.88;;
18834;SDS011;9546;59.262;18.036;2022-07-23T12:30:31;1.42;;;0.90;;
18834;SDS011;9546;59.262;18.036;2022-07-23T12:33:01;1.63;;;1.00;;
18834;SDS011;9546;59.262;18.036;2022-07-23T12:35:33;2.17;;;1.10;;
18834;SDS011;9546;59.262;18.036;2022-07-23T12:38:03;1.30;;;1.00;;
18834;SDS011;9546;59.262;18.036;2022-07-23T12:40:32;1.60;;;0.95;;
18834;SDS011;9546;59.262;18.036;2022-07-23T12:43:02;2.10;;;1.30;;
18834;SDS011;9546;59.262;18.036;2022-07-23T12:45:45;1.00;;;0.90;;
18834;SDS011;9546;59.262;18.036;2022-07-23T12:48:20;2.75;;;1.10;;
18834;SDS011;9546;59.262;18.036;2022-07-23T12:50:50;5.28;;;1.00;;
18834;SDS011;9546;59.262;18.036;2022-07-23T13:13:09;1.10;;;1.00;;
18834;SDS011;9546;59.262;18.036;2022-07-23T13:15:36;2.88;;;1.25;;
18834;SDS011;9546;59.262;18.036;2022-07-23T13:18:02;1.60;;;0.82;;
18834;SDS011;9546;59.262;18.036;2022-07-23T13:20:29;2.92;;;1.10;;
18834;SDS011;9546;59.262;18.036;2022-07-23T13:22:56;3.17;;;1.20;;
18834;SDS011;9546;59.262;18.036;2022-07-23T13:25:23;1.20;;;1.05;;
18834;SDS011;9546;59.262;18.036;2022-07-23T13:27:49;2.15;;;1.20;;
18834;SDS011;9546;59.262;18.036;2022-07-23T13:30:17;2.53;;;1.10;;
18834;SDS011;9546;59.262;18.036;2022-07-23T13:32:44;3.47;;;1.02;;
18834;SDS011;9546;59.262;18.036;2022-07-23T13:35:10;2.67;;;1.02;;
18834;SDS011;9546;59.262;18.036;2022-07-23T13:37:38;2.70;;;1.20;;
18834;SDS011;9546;59.262;18.036;2022-07-23T13:40:05;2.28;;;1.13;;
18834;SDS011;9546;59.262;18.036;2022-07-23T13:42:31;2.47;;;1.30;;
18834;SDS011;9546;59.262;18.036;2022-07-23T13:44:58;1.58;;;1.27;;
18834;SDS011;9546;59.262;18.036;2022-07-23T13:47:26;1.95;;;0.90;;
18834;SDS011;9546;59.262;18.036;2022-07-23T13:49:52;1.55;;;1.00;;
18834;SDS011;9546;59.262;18.036;2022-07-23T13:52:19;1.08;;;0.98;;
18834;SDS011;9546;59.262;18.036;2022-07-23T13:54:46;1.63;;;0.98;;
18834;SDS011;9546;59.262;18.036;2022-07-23T13:57:12;1.17;;;1.08;;
18834;SDS011;9546;59.262;18.036;2022-07-23T13:59:39;2.75;;;1.10;;
18834;SDS011;9546;59.262;18.036;2022-07-23T14:02:05;2.35;;;1.02;;
18834;SDS011;9546;59.262;18.036;2022-07-23T14:04:34;1.65;;;1.35;;
18834;SDS011;9546;59.262;18.036;2022-07-23T14:07:00;1.83;;;1.27;;
18834;SDS011;9546;59.262;18.036;2022-07-23T14:09:27;3.30;;;1.20;;
18834;SDS011;9546;59.262;18.036;2022-07-23T14:11:54;2.38;;;1.13;;
18834;SDS011;9546;59.262;18.036;2022-07-23T14:14:21;2.08;;;1.15;;
18834;SDS011;9546;59.262;18.036;2022-07-23T14:16:47;2.40;;;1.23;;
18834;SDS011;9546;59.262;18.036;2022-07-23T14:19:14;1.27;;;1.15;;
18834;SDS011;9546;59.262;18.036;2022-07-23T14:21:42;1.10;;;1.00;;
18834;SDS011;9546;59.262;18.036;2022-07-23T14:24:09;2.05;;;1.17;;
18834;SDS011;9546;59.262;18.036;2022-07-23T14:26:35;1.58;;;1.20;;
18834;SDS011;9546;59.262;18.036;2022-07-23T14:29:02;1.85;;;1.30;;
18834;SDS011;9546;59.262;18.036;2022-07-23T14:31:28;2.63;;;1.10;;
18834;SDS011;9546;59.262;18.036;2022-07-23T14:33:55;3.83;;;1.20;;
18834;SDS011;9546;59.262;18.036;2022-07-23T14:36:21;1.52;;;1.13;;
18834;SDS011;9546;59.262;18.036;2022-07-23T14:38:49;1.85;;;1.10;;
18834;SDS011;9546;59.262;18.036;2022-07-23T14:41:16;1.70;;;1.30;;
18834;SDS011;9546;59.262;18.036;2022-07-23T14:43:42;1.55;;;1.20;;
18834;SDS011;9546;59.262;18.036;2022-07-23T14:46:09;1.10;;;1.00;;
18834;SDS011;9546;59.262;18.036;2022-07-23T14:48:36;2.45;;;1.45;;
18834;SDS011;9546;59.262;18.036;2022-07-23T14:51:02;2.58;;;1.60;;
18834;SDS011;9546;59.262;18.036;2022-07-23T15:12:14;2.35;;;1.83;;
18834;SDS011;9546;59.262;18.036;2022-07-23T15:14:41;3.50;;;2.72;;
18834;SDS011;9546;59.262;18.036;2022-07-23T15:17:08;3.05;;;1.38;;
18834;SDS011;9546;59.262;18.036;2022-07-23T15:19:35;4.22;;;2.30;;
18834;SDS011;9546;59.262;18.036;2022-07-23T15:22:02;5.30;;;2.78;;
18834;SDS011;9546;59.262;18.036;2022-07-23T15:24:29;2.40;;;1.40;;
18834;SDS011;9546;59.262;18.036;2022-07-23T15:26:56;4.32;;;2.45;;
18834;SDS011;9546;59.262;18.036;2022-07-23T15:29:25;2.30;;;1.70;;
18834;SDS011;9546;59.262;18.036;2022-07-23T15:31:51;2.67;;;1.75;;
18834;SDS011;9546;59.262;18.036;2022-07-23T15:34:18;37.60;;;6.72;;
18834;SDS011;9546;59.262;18.036;2022-07-23T15:36:45;22.10;;;3.90;;
18834;SDS011;9546;59.262;18.036;2022-07-23T15:39:12;7.07;;;2.30;;
18834;SDS011;9546;59.262;18.036;2022-07-23T15:41:39;7.32;;;2.40;;
18834;SDS011;9546;59.262;18.036;2022-07-23T15:44:06;9.73;;;2.30;;
18834;SDS011;9546;59.262;18.036;2022-07-23T15:46:34;6.03;;;4.28;;
18834;SDS011;9546;59.262;18.036;2022-07-23T15:49:01;4.47;;;2.47;;
18834;SDS011;9546;59.262;18.036;2022-07-23T15:51:28;2.42;;;1.90;;
18834;SDS011;9546;59.262;18.036;2022-07-23T15:53:56;4.47;;;2.17;;
18834;SDS011;9546;59.262;18.036;2022-07-23T15:56:23;3.08;;;1.85;;
18834;SDS011;9546;59.262;18.036;2022-07-23T15:58:50;2.90;;;1.50;;
18834;SDS011;9546;59.262;18.036;2022-07-23T16:01:17;3.08;;;1.83;;
18834;SDS011;9546;59.262;18.036;2022-07-23T16:03:45;2.65;;;1.92;;
18834;SDS011;9546;59.262;18.036;2022-07-23T16:06:12;2.53;;;1.70;;
18834;SDS011;9546;59.262;18.036;2022-07-23T16:08:39;3.53;;;1.38;;
18834;SDS011;9546;59.262;18.036;2022-07-23T16:11:05;6.50;;;1.30;;
18834;SDS011;9546;59.262;18.036;2022-07-23T16:13:32;2.90;;;1.73;;
18834;SDS011;9546;59.262;18.036;2022-07-23T16:16:00;2.55;;;1.38;;
18834;SDS011;9546;59.262;18.036;2022-07-23T16:18:27;2.22;;;1.52;;
18834;SDS011;9546;59.262;18.036;2022-07-23T16:20:57;3.65;;;1.45;;
18834;SDS011;9546;59.262;18.036;2022-07-23T16:23:24;2.78;;;1.73;;
18834;SDS011;9546;59.262;18.036;2022-07-23T16:25:51;2.53;;;1.75;;
18834;SDS011;9546;59.262;18.036;2022-07-23T16:28:18;1.65;;;1.50;;
18834;SDS011;9546;59.262;18.036;2022-07-23T16:30:45;2.78;;;1.48;;
18834;SDS011;9546;59.262;18.036;2022-07-23T16:33:12;1.27;;;1.17;;
18834;SDS011;9546;59.262;18.036;2022-07-23T16:35:38;2.35;;;1.50;;
18834;SDS011;9546;59.262;18.036;2022-07-23T16:38:07;3.60;;;1.70;;
18834;SDS011;9546;59.262;18.036;2022-07-23T16:40:33;1.92;;;1.67;;
18834;SDS011;9546;59.262;18.036;2022-07-23T16:43:00;1.75;;;1.60;;
18834;SDS011;9546;59.262;18.036;2022-07-23T16:45:27;2.47;;;1.27;;
18834;SDS011;9546;59.262;18.036;2022-07-23T16:47:55;2.80;;;1.75;;
18834;SDS011;9546;59.262;18.036;2022-07-23T16:50:22;2.25;;;1.40;;
18834;SDS011;9546;59.262;18.036;2022-07-23T17:12:28;2.80;;;1.40;;
18834;SDS011;9546;59.262;18.036;2022-07-23T17:14:54;2.83;;;1.50;;
18834;SDS011;9546;59.262;18.036;2022-07-23T17:17:21;3.45;;;1.63;;
18834;SDS011;9546;59.262;18.036;2022-07-23T17:19:48;2.88;;;1.65;;
18834;SDS011;9546;59.262;18.036;2022-07-23T17:22:15;3.85;;;1.65;;
18834;SDS011;9546;59.262;18.036;2022-07-23T17:24:42;4.70;;;1.50;;
18834;SDS011;9546;59.262;18.036;2022-07-23T17:27:09;2.80;;;1.85;;
18834;SDS011;9546;59.262;18.036;2022-07-23T17:29:38;3.28;;;1.67;;
18834;SDS011;9546;59.262;18.036;2022-07-23T17:32:04;4.55;;;1.65;;
18834;SDS011;9546;59.262;18.036;2022-07-23T17:34:31;5.05;;;1.27;;
18834;SDS011;9546;59.262;18.036;2022-07-23T17:36:58;4.30;;;2.10;;
18834;SDS011;9546;59.262;18.036;2022-07-23T17:39:25;3.63;;;1.60;;
18834;SDS011;9546;59.262;18.036;2022-07-23T17:41:52;2.47;;;1.30;;
18834;SDS011;9546;59.262;18.036;2022-07-23T17:44:19;1.70;;;1.40;;
18834;SDS011;9546;59.262;18.036;2022-07-23T17:46:48;2.60;;;1.30;;
18834;SDS011;9546;59.262;18.036;2022-07-23T17:49:14;2.28;;;1.27;;